Time;durP1;ratioP1;P1;durP2;ratioP2;P2;SDS_P1;SDS_P2;PMS_P1;PMS_P2;Temp;Humidity;BMP_temperature;BMP_pressure;BME280_temperature;BME280_humidity;BME280_pressure;Samples;Min_cycle;Max_cycle;Signal;HPM_P1;HPM_P2
2022/10/05 00:02:22;;;;;;;9.82;7.05;;;;;;;14.31;100.00;101566.72;4892138;29;20063;-79
2022/10/05 00:04:54;;;;;;;9.07;7.43;;;;;;;14.30;100.00;101564.94;4914838;29;20051;-78
2022/10/05 00:07:23;;;;;;;9.85;7.13;;;;;;;14.31;100.00;101565.81;4912808;29;20047;-80
2022/10/05 00:09:57;;;;;;;8.32;7.05;;;;;;;14.32;100.00;101559.63;4899940;29;20048;-78
2022/10/05 00:12:28;;;;;;;10.60;7.60;;;;;;;14.32;100.00;101563.16;4905068;29;20040;-78
2022/10/05 00:14:59;;;;;;;11.68;8.02;;;;;;;14.32;100.00;101559.63;4906542;29;20058;-79
2022/10/05 00:17:29;;;;;;;9.13;6.75;;;;;;;14.34;100.00;101563.16;4902436;29;20038;-79
2022/10/05 00:19:57;;;;;;;10.07;6.97;;;;;;;14.34;100.00;101572.00;4903756;29;20039;-78
2022/10/05 00:22:32;;;;;;;10.75;6.70;;;;;;;14.34;100.00;101573.78;4880875;29;20043;-79
2022/10/05 00:25:09;;;;;;;11.93;7.28;;;;;;;14.35;100.00;101565.81;4874594;29;20518;-78
2022/10/05 00:27:38;;;;;;;9.88;6.82;;;;;;;14.35;100.00;101560.53;4899262;29;20097;-78
2022/10/05 00:30:19;;;;;;;8.98;6.57;;;;;;;14.36;100.00;101551.66;4912203;29;20052;-78
2022/10/05 00:32:49;;;;;;;10.27;7.13;;;;;;;14.36;100.00;101546.38;4897531;29;20437;-78
2022/10/05 00:35:23;;;;;;;9.60;6.93;;;;;;;14.36;100.00;101546.38;4887436;29;20067;-78
2022/10/05 00:37:53;;;;;;;10.07;6.97;;;;;;;14.37;100.00;101534.88;4914091;29;20039;-78
2022/10/05 00:40:49;;;;;;;11.02;6.38;;;;;;;14.37;100.00;101518.09;4882622;29;20047;-79
2022/10/05 00:43:56;;;;;;;6.80;6.10;;;;;;;14.37;100.00;101515.47;4908644;29;20048;-78
2022/10/05 00:46:50;;;;;;;11.15;6.88;;;;;;;14.36;100.00;101519.84;4902619;29;20043;-79
2022/10/05 00:49:48;;;;;;;10.55;6.78;;;;;;;14.37;100.00;101516.31;4907150;29;20047;-79
2022/10/05 00:52:31;;;;;;;7.43;6.65;;;;;;;14.39;100.00;101518.97;4914847;29;20039;-80
2022/10/05 00:55:15;;;;;;;8.82;6.70;;;;;;;14.39;100.00;101513.69;4913064;29;20040;-77
2022/10/05 00:58:14;;;;;;;18.60;7.53;;;;;;;14.39;100.00;101503.94;4887848;29;20329;-79
2022/10/05 01:01:10;;;;;;;10.05;7.53;;;;;;;14.39;100.00;101495.13;4914960;29;20040;-79
2022/10/05 01:03:58;;;;;;;9.15;6.60;;;;;;;14.38;100.00;101486.25;4893809;29;20163;-78
2022/10/05 01:07:13;;;;;;;10.93;5.63;;;;;;;14.38;100.00;101483.59;4917072;29;20047;-79
2022/10/05 01:10:19;;;;;;;10.77;5.88;;;;;;;14.37;100.00;101478.34;4910048;29;20143;-79
2022/10/05 01:13:05;;;;;;;8.05;6.22;;;;;;;14.36;100.00;101474.78;4899900;29;20055;-78
2022/10/05 01:15:45;;;;;;;9.75;5.95;;;;;;;14.36;100.00;101469.47;4889269;29;20062;-78
2022/10/05 01:18:30;;;;;;;6.72;5.95;;;;;;;14.36;100.00;101481.84;4916554;29;20043;-79
2022/10/05 01:21:23;;;;;;;9.57;6.18;;;;;;;14.35;100.00;101469.50;4915099;29;20467;-77
2022/10/05 01:24:20;;;;;;;9.57;5.55;;;;;;;14.31;100.00;101476.59;4910690;29;20385;-79
2022/10/05 01:27:07;;;;;;;7.55;5.28;;;;;;;14.30;100.00;101481.88;4889483;29;20409;-78
2022/10/05 01:29:39;;;;;;;9.27;5.40;;;;;;;14.28;100.00;101484.53;4904214;29;20258;-78
2022/10/05 01:32:17;;;;;;;7.30;5.53;;;;;;;14.26;100.00;101475.69;4905696;29;20040;-78
2022/10/05 01:34:54;;;;;;;9.18;5.18;;;;;;;14.26;100.00;101475.69;4907226;29;20167;-78
2022/10/05 01:37:38;;;;;;;6.03;5.43;;;;;;;14.27;100.00;101473.91;4921662;29;20047;-79
2022/10/05 01:40:27;;;;;;;6.90;5.40;;;;;;;14.25;100.00;101465.97;4895821;29;20056;-78
2022/10/05 01:43:14;;;;;;;6.53;5.82;;;;;;;14.24;100.00;101461.56;4897860;29;20405;-78
2022/10/05 01:46:00;;;;;;;6.00;5.43;;;;;;;14.24;100.00;101462.44;4896235;29;20254;-79
2022/10/05 01:48:40;;;;;;;7.30;5.93;;;;;;;14.23;100.00;101462.44;4903109;29;20067;-81
2022/10/05 01:51:21;;;;;;;11.43;5.70;;;;;;;14.23;100.00;101452.75;4912232;29;20044;-78
2022/10/05 01:54:23;;;;;;;8.25;5.78;;;;;;;14.23;100.00;101450.09;4901439;29;21285;-79
2022/10/05 01:57:40;;;;;;;7.88;5.22;;;;;;;14.23;100.00;101444.78;4900312;29;20077;-78
2022/10/05 02:00:13;;;;;;;7.43;5.80;;;;;;;14.23;100.00;101442.13;4904716;29;20040;-78
2022/10/05 02:02:49;;;;;;;6.60;5.25;;;;;;;14.22;100.00;101444.78;4901639;29;20166;-78
2022/10/05 02:05:28;;;;;;;7.78;5.55;;;;;;;14.23;100.00;101438.59;4910285;29;20401;-81
2022/10/05 02:08:02;;;;;;;7.57;5.40;;;;;;;14.22;100.00;101428.88;4922397;29;20056;-78
2022/10/05 02:10:48;;;;;;;8.15;4.60;;;;;;;14.23;100.00;101436.84;4881396;29;20604;-79
2022/10/05 02:13:29;;;;;;;6.60;4.80;;;;;;;14.22;100.00;101436.84;4866885;29;20043;-80
2022/10/05 02:16:26;;;;;;;7.95;5.25;;;;;;;14.24;100.00;101424.47;4897926;29;20032;-78
2022/10/05 02:19:20;;;;;;;6.43;5.03;;;;;;;14.25;100.00;101426.22;4912869;29;20385;-78
2022/10/05 02:21:58;;;;;;;6.22;4.85;;;;;;;14.24;100.00;101424.47;4911652;29;20052;-78
2022/10/05 02:24:38;;;;;;;5.53;5.00;;;;;;;14.25;100.00;101426.22;4895710;29;20050;-78
2022/10/05 02:27:09;;;;;;;7.90;5.40;;;;;;;14.23;100.00;101420.94;4907222;29;20393;-79
2022/10/05 02:29:44;;;;;;;6.53;4.55;;;;;;;14.24;100.00;101424.47;4883784;29;20036;-80
2022/10/05 02:32:19;;;;;;;5.70;4.82;;;;;;;14.24;100.00;101424.47;4891901;29;20425;-78
2022/10/05 02:34:47;;;;;;;8.23;4.55;;;;;;;14.23;100.00;101427.97;4887301;29;20035;-77
2022/10/05 02:37:34;;;;;;;6.22;4.40;;;;;;;14.23;100.00;101433.28;4880922;29;20043;-79
2022/10/05 02:40:22;;;;;;;7.82;4.70;;;;;;;14.21;100.00;101428.00;4904298;29;20056;-80
2022/10/05 02:43:10;;;;;;;7.65;5.40;;;;;;;14.20;100.00;101425.34;4928370;29;20069;-78
2022/10/05 02:46:08;;;;;;;11.70;5.40;;;;;;;14.19;100.00;101419.16;4883615;29;20051;-78
2022/10/05 02:48:37;;;;;;;11.05;5.30;;;;;;;14.19;100.00;101420.94;4877312;29;20171;-80
2022/10/05 02:51:20;;;;;;;5.68;5.07;;;;;;;14.18;100.00;101419.19;4901505;29;20351;-79
2022/10/05 02:54:20;;;;;;;6.60;5.53;;;;;;;14.16;100.00;101421.84;4901444;29;20326;-79
2022/10/05 02:56:59;;;;;;;10.32;5.82;;;;;;;14.16;100.00;101420.97;4896866;29;20046;-79
2022/10/05 02:59:42;;;;;;;8.07;4.82;;;;;;;14.15;100.00;101416.53;4876893;29;20051;-78
2022/10/05 03:02:25;;;;;;;7.50;5.25;;;;;;;14.14;100.00;101412.09;4906699;29;20035;-79
2022/10/05 03:05:11;;;;;;;6.13;5.38;;;;;;;14.14;100.00;101407.72;4912088;29;20043;-78
2022/10/05 03:08:06;;;;;;;8.15;5.15;;;;;;;14.14;100.00;101414.75;4887476;29;20251;-78
2022/10/05 03:10:58;;;;;;;11.38;5.57;;;;;;;14.15;100.00;101416.53;4868799;29;20253;-79
2022/10/05 03:13:53;;;;;;;7.07;5.50;;;;;;;14.15;100.00;101425.34;4889366;29;20421;-78
2022/10/05 03:16:50;;;;;;;7.80;5.75;;;;;;;14.15;100.00;101413.88;4858661;29;20063;-79
2022/10/05 03:19:24;;;;;;;6.07;5.47;;;;;;;14.14;100.00;101401.50;4902106;29;20535;-79
2022/10/05 03:22:09;;;;;;;9.85;6.05;;;;;;;14.15;100.00;101408.56;4905757;29;20054;-78
2022/10/05 03:24:51;;;;;;;8.32;6.25;;;;;;;14.15;100.00;101408.56;4905483;29;20160;-79
2022/10/05 03:27:39;;;;;;;6.85;5.85;;;;;;;14.16;100.00;101402.41;4901890;29;20051;-78
2022/10/05 03:30:24;;;;;;;7.15;6.00;;;;;;;14.14;100.00;101401.50;4904226;29;20062;-79
2022/10/05 03:33:12;;;;;;;10.57;6.10;;;;;;;14.15;100.00;101408.56;4885383;29;20052;-77
2022/10/05 03:36:15;;;;;;;6.50;5.53;;;;;;;14.15;100.00;101409.44;4893446;29;20170;-79
2022/10/05 03:39:01;;;;;;;7.68;6.05;;;;;;;14.15;100.00;101397.97;4881206;29;20052;-79
2022/10/05 03:41:35;;;;;;;8.18;5.78;;;;;;;14.15;100.00;101398.84;4907836;29;20509;-79
2022/10/05 03:44:25;;;;;;;6.20;5.60;;;;;;;14.15;100.00;101404.16;4884963;29;20039;-79
2022/10/05 03:47:06;;;;;;;8.35;6.43;;;;;;;14.14;100.00;101389.16;4866278;29;20060;-79
2022/10/05 03:49:34;;;;;;;;;;;;;;;14.14;100.00;101393.53;4904155;29;20559;-79
2022/10/05 03:52:15;;;;;;;8.43;5.88;;;;;;;14.14;100.00;101382.94;4888294;29;20384;-79
2022/10/05 03:54:49;;;;;;;7.75;5.40;;;;;;;14.13;100.00;101376.78;4893633;29;20044;-79
2022/10/05 03:57:24;;;;;;;8.00;5.63;;;;;;;14.15;100.00;101379.44;4881544;29;20053;-79
2022/10/05 04:00:03;;;;;;;8.23;5.25;;;;;;;14.16;100.00;101378.56;4890075;29;20053;-78
2022/10/05 04:02:49;;;;;;;8.30;5.65;;;;;;;14.15;100.00;101372.34;4842165;29;20049;-80
2022/10/05 04:05:24;;;;;;;6.68;5.90;;;;;;;14.14;100.00;101362.66;4880774;29;20615;-79
2022/10/05 04:08:01;;;;;;;6.55;5.82;;;;;;;14.14;100.00;101373.25;4881002;29;20526;-80
2022/10/05 04:10:42;;;;;;;9.55;6.03;;;;;;;14.15;100.00;101374.13;4887568;29;20774;-79
2022/10/05 04:13:25;;;;;;;7.32;5.70;;;;;;;14.15;100.00;101368.81;4872839;29;20326;-79
2022/10/05 04:16:01;;;;;;;8.23;5.78;;;;;;;14.14;100.00;101367.03;4880412;29;20560;-81
2022/10/05 04:18:38;;;;;;;7.93;5.43;;;;;;;14.15;100.00;101356.44;4857880;29;20037;-79
2022/10/05 04:21:28;;;;;;;6.15;5.55;;;;;;;14.14;100.00;101349.41;4887331;29;20051;-79
2022/10/05 04:24:14;;;;;;;8.50;6.03;;;;;;;14.15;100.00;101352.91;4879064;29;20044;-79
2022/10/05 04:26:53;;;;;;;8.85;5.25;;;;;;;14.15;100.00;101350.28;4881045;29;20047;-77
2022/10/05 04:29:43;;;;;;;7.13;6.00;;;;;;;14.15;100.00;101344.97;4855567;29;20667;-78
2022/10/05 04:32:15;;;;;;;8.02;5.40;;;;;;;14.14;100.00;101341.44;4887533;29;20588;-78
2022/10/05 04:34:52;;;;;;;6.82;5.00;;;;;;;14.15;100.00;101339.66;4859773;29;20039;-79
2022/10/05 04:37:43;;;;;;;8.43;5.18;;;;;;;14.15;100.00;101340.53;4923199;29;20039;-79
2022/10/05 04:40:24;;;;;;;12.10;7.57;;;;;;;14.15;100.00;101322.00;4904842;29;20364;-79
2022/10/05 04:43:18;;;;;;;8.95;5.35;;;;;;;14.14;100.00;101311.38;4900036;29;20040;-80
2022/10/05 04:46:10;;;;;;;5.57;4.53;;;;;;;14.14;100.00;101324.63;4891699;29;20042;-79
2022/10/05 04:49:00;;;;;;;9.25;5.72;;;;;;;14.14;100.00;101332.59;4889911;29;20381;-78
2022/10/05 04:51:35;;;;;;;6.93;5.87;;;;;;;14.13;100.00;101325.53;4892533;29;20162;-78
2022/10/05 04:54:19;;;;;;;5.75;5.25;;;;;;;14.13;100.00;101336.16;4910092;29;20299;-78
2022/10/05 04:57:05;;;;;;;8.02;5.82;;;;;;;14.12;100.00;101326.41;4906712;29;20048;-77
2022/10/05 05:00:30;;;;;;;7.53;6.10;;;;;;;14.11;100.00;101304.34;4902456;29;20036;-78
2022/10/05 05:03:19;;;;;;;5.68;5.18;;;;;;;14.10;100.00;101315.84;4869843;29;20060;-78
2022/10/05 05:06:23;;;;;;;8.23;5.57;;;;;;;14.10;100.00;101307.00;4916915;29;20058;-78
2022/10/05 05:09:09;;;;;;;7.20;6.30;;;;;;;14.09;100.00;101319.38;4909154;29;20066;-79
2022/10/05 05:11:49;;;;;;;6.05;5.40;;;;;;;14.09;100.00;101319.38;4903608;29;20059;-79
2022/10/05 05:14:50;;;;;;;7.55;6.03;;;;;;;14.09;100.00;101321.16;4923751;29;20281;-79
2022/10/05 05:17:25;;;;;;;7.82;5.93;;;;;;;14.10;100.00;101314.94;4917634;29;20238;-79
2022/10/05 05:19:56;;;;;;;6.35;5.75;;;;;;;14.09;100.00;101308.78;4884758;29;20055;-79
2022/10/05 05:22:46;;;;;;;6.90;5.45;;;;;;;14.09;100.00;101310.56;4908144;29;20043;-79
2022/10/05 05:25:29;;;;;;;6.70;5.93;;;;;;;14.08;100.00;101296.38;4889939;29;20414;-80
2022/10/05 05:28:34;;;;;;;7.45;5.05;;;;;;;14.09;100.00;101307.91;4898056;29;20050;-81
2022/10/05 05:31:16;;;;;;;9.35;5.95;;;;;;;14.09;100.00;101310.56;4905210;29;20051;-79
2022/10/05 05:34:23;;;;;;;8.70;5.82;;;;;;;14.09;100.00;101313.19;4913113;29;20043;-78
2022/10/05 05:37:34;;;;;;;7.32;5.63;;;;;;;14.10;100.00;101309.66;4851584;29;20552;-78
2022/10/05 05:40:16;;;;;;;7.82;6.22;;;;;;;14.09;100.00;101314.06;4922136;29;20040;-80
2022/10/05 05:43:01;;;;;;;6.82;5.38;;;;;;;14.08;100.00;101308.78;4906322;29;20040;-79
2022/10/05 05:45:41;;;;;;;9.52;6.25;;;;;;;14.08;100.00;101308.78;4911938;29;20051;-86
2022/10/05 05:48:36;;;;;;;7.57;6.15;;;;;;;14.08;100.00;101311.41;4889936;29;20400;-80
2022/10/05 05:51:11;;;;;;;7.85;6.22;;;;;;;14.07;100.00;101310.53;4887622;29;20047;-80
2022/10/05 05:53:47;;;;;;;10.25;5.47;;;;;;;14.10;100.00;101309.66;4900350;29;20047;-79
2022/10/05 05:56:40;;;;;;;7.32;5.85;;;;;;;14.09;100.00;101307.91;4903035;29;20282;-77
2022/10/05 05:59:18;;;;;;;10.10;6.18;;;;;;;14.08;100.00;101307.00;4898286;29;20304;-78
2022/10/05 06:01:54;;;;;;;9.00;5.38;;;;;;;14.08;100.00;101309.66;4886247;29;20063;-76
2022/10/05 06:04:50;;;;;;;8.90;5.60;;;;;;;14.08;100.00;101306.13;4905014;29;20532;-77
2022/10/05 06:07:24;;;;;;;6.85;4.90;;;;;;;14.08;100.00;101307.00;4855769;29;20052;-79
2022/10/05 06:10:23;;;;;;;6.63;5.47;;;;;;;14.10;100.00;101301.69;4898850;29;20073;-78
2022/10/05 06:13:08;;;;;;;6.78;5.78;;;;;;;14.11;100.00;101298.16;4868660;29;20048;-78
2022/10/05 06:15:55;;;;;;;5.90;5.07;;;;;;;14.10;100.00;101292.00;4897044;29;20051;-78
2022/10/05 06:18:24;;;;;;;7.95;5.22;;;;;;;14.11;100.00;101300.81;4905400;29;23971;-77
2022/10/05 06:21:05;;;;;;;8.45;5.03;;;;;;;14.12;100.00;101308.78;4888864;29;20050;-77
2022/10/05 06:23:43;;;;;;;6.18;5.15;;;;;;;14.13;100.00;101312.28;4865974;29;20444;-77
2022/10/05 06:26:38;;;;;;;5.95;5.35;;;;;;;14.14;100.00;101300.78;4908799;29;20039;-79
2022/10/05 06:29:18;;;;;;;6.20;5.13;;;;;;;14.13;100.00;101299.91;4888979;29;20531;-79
2022/10/05 06:32:03;;;;;;;9.27;5.50;;;;;;;14.15;100.00;101305.22;4890687;29;20052;-79
2022/10/05 06:35:01;;;;;;;5.45;4.75;;;;;;;14.16;100.00;101310.50;4871367;29;20043;-77
2022/10/05 06:38:05;;;;;;;5.55;5.03;;;;;;;14.17;100.00;101308.72;4905833;29;20370;-78
2022/10/05 06:40:33;;;;;;;;;;;;;;;14.18;100.00;101307.88;4880016;29;20063;-77
2022/10/05 06:43:17;;;;;;;7.50;5.30;;;;;;;14.19;100.00;101315.78;4902037;29;19923;-78
2022/10/05 06:46:56;;;;;;;9.02;5.07;;;;;;;14.21;100.00;101303.44;4898711;29;20058;-78
2022/10/05 06:50:38;;;;;;;7.90;4.95;;;;;;;14.23;100.00;101306.06;4875182;29;20609;-79
2022/10/05 06:53:37;;;;;;;6.50;4.53;;;;;;;14.23;100.00;101314.00;4810941;29;20045;-78
2022/10/05 06:56:24;;;;;;;6.45;4.43;;;;;;;14.23;100.00;101316.66;4925201;29;20480;-79
2022/10/05 06:59:18;;;;;;;10.15;5.43;;;;;;;14.24;100.00;101307.81;4902828;29;20614;-77
2022/10/05 07:01:55;;;;;;;5.15;4.65;;;;;;;14.27;100.00;101315.75;4885726;29;20151;-77
2022/10/05 07:04:44;;;;;;;5.65;4.85;;;;;;;14.28;100.00;101309.56;4925023;29;20116;-78
2022/10/05 07:07:31;;;;;;;7.82;4.95;;;;;;;14.30;100.00;101307.78;4899764;29;20047;-77
2022/10/05 07:10:19;;;;;;;9.27;5.50;;;;;;;14.32;100.00;101311.31;4894033;29;20044;-78
2022/10/05 07:13:09;;;;;;;7.97;5.28;;;;;;;14.33;100.00;101313.09;4906135;29;20051;-78
2022/10/05 07:15:52;;;;;;;6.63;5.40;;;;;;;14.35;100.00;101311.31;4899297;29;20042;-80
2022/10/05 07:18:54;;;;;;;9.18;5.72;;;;;;;14.35;100.00;101303.34;4902760;29;20047;-79
2022/10/05 07:21:54;;;;;;;7.05;6.10;;;;;;;14.36;100.00;101307.75;4903535;29;20044;-77
2022/10/05 07:24:32;;;;;;;6.28;5.28;;;;;;;14.36;100.00;101296.28;4894414;29;20043;-78
2022/10/05 07:27:11;;;;;;;8.25;5.30;;;;;;;14.36;100.00;101302.44;4902556;29;20066;-78
2022/10/05 07:30:02;;;;;;;6.00;4.93;;;;;;;14.38;100.00;101299.78;4898255;29;20326;-78
2022/10/05 07:32:41;;;;;;;9.50;5.55;;;;;;;14.42;100.00;101305.09;4907797;29;20040;-78
2022/10/05 07:38:37;;;;;;;6.53;5.05;;;;;;;14.49;100.00;101291.78;4889398;29;20047;-78
2022/10/05 07:41:09;;;;;;;7.53;5.03;;;;;;;14.50;100.00;101291.78;4883853;29;20056;-78
2022/10/05 07:43:50;;;;;;;8.05;5.20;;;;;;;14.52;100.00;101297.09;4892118;29;20040;-78
2022/10/05 07:46:50;;;;;;;7.88;5.53;;;;;;;14.54;100.00;101292.66;4892403;29;20051;-77
2022/10/05 07:49:32;;;;;;;6.10;5.47;;;;;;;14.55;100.00;101292.63;4922289;29;20052;-77
2022/10/05 07:52:09;;;;;;;6.25;5.45;;;;;;;14.59;100.00;101293.50;4911608;29;20052;-77
2022/10/05 07:54:58;;;;;;;8.13;4.53;;;;;;;14.60;100.00;101282.03;4895865;29;20369;-78
2022/10/05 07:58:10;;;;;;;7.03;5.00;;;;;;;14.64;100.00;101291.72;4880318;29;20374;-78
2022/10/05 08:00:58;;;;;;;9.23;4.90;;;;;;;14.70;100.00;101285.50;4852284;29;20082;-78
2022/10/05 08:03:48;;;;;;;4.88;3.90;;;;;;;14.75;100.00;101289.00;4849846;29;20037;-78
2022/10/05 08:06:25;;;;;;;7.53;4.07;;;;;;;14.80;100.00;101285.44;4911027;29;20156;-79
2022/10/05 08:09:06;;;;;;;6.18;4.20;;;;;;;14.85;100.00;101289.81;4895237;29;20346;-80
2022/10/05 08:12:04;;;;;;;3.95;3.55;;;;;;;14.88;100.00;101277.41;4906944;29;20048;-78
2022/10/05 08:14:36;;;;;;;4.72;4.28;;;;;;;14.91;100.00;101268.53;4922085;29;20489;-80
2022/10/05 08:17:16;;;;;;;8.20;4.45;;;;;;;14.94;100.00;101280.00;4914736;29;20050;-78
2022/10/05 08:19:58;;;;;;;6.25;4.10;;;;;;;14.97;100.00;101276.44;4905435;29;20597;-77
2022/10/05 08:22:39;;;;;;;5.20;3.83;;;;;;;14.97;100.00;101269.38;4918253;29;20059;-77
2022/10/05 08:25:37;;;;;;;5.40;3.67;;;;;;;14.99;100.00;101274.69;4905336;29;20054;-78
2022/10/05 08:28:21;;;;;;;4.80;3.72;;;;;;;15.05;100.00;101266.66;4891720;29;20512;-78
2022/10/05 08:30:58;;;;;;;4.68;3.40;;;;;;;15.08;100.00;101268.41;4928572;29;20051;-77
2022/10/05 08:33:34;;;;;;;3.38;3.13;;;;;;;15.10;100.00;101262.16;4900081;29;20046;-78
2022/10/05 08:36:11;;;;;;;5.03;3.25;;;;;;;15.16;100.00;101259.47;4937544;29;20051;-78
2022/10/05 08:38:40;;;;;;;5.20;3.67;;;;;;;15.24;100.00;101251.44;4891340;29;20047;-78
2022/10/05 08:41:33;;;;;;;3.45;2.83;;;;;;;15.31;100.00;101250.50;4908022;29;20050;-77
2022/10/05 08:44:08;;;;;;;3.00;2.80;;;;;;;15.38;100.00;101254.81;4871864;29;20067;-78
2022/10/05 08:47:05;;;;;;;3.95;2.47;;;;;;;15.45;100.00;101258.31;4922006;29;20501;-79
2022/10/05 08:49:57;;;;;;;2.67;2.40;;;;;;;15.48;100.00;101258.28;4927840;29;20060;-78
2022/10/05 08:52:29;;;;;;;3.08;2.40;;;;;;;15.53;100.00;101251.13;4916662;29;20042;-77
2022/10/05 08:55:09;;;;;;;3.70;2.95;;;;;;;15.56;100.00;101243.13;4892421;29;20035;-78
2022/10/05 08:57:46;;;;;;;3.33;3.00;;;;;;;15.60;100.00;101246.66;4924214;28;20133;-79
2022/10/05 09:00:48;;;;;;;3.65;3.35;;;;;;;15.62;100.00;101241.31;4909527;29;20055;-79
2022/10/05 09:03:41;;;;;;;4.18;3.25;;;;;;;15.65;100.00;101247.47;4892830;29;20048;-78
2022/10/05 09:06:25;;;;;;;4.60;3.15;;;;;;;15.70;100.00;101234.13;4910117;29;20052;-79
2022/10/05 09:09:03;;;;;;;5.63;3.35;;;;;;;15.75;100.00;101249.16;4914669;29;20070;-80
2022/10/05 09:11:54;;;;;;;4.35;3.65;;;;;;;15.79;100.00;101239.38;4874323;29;20113;-78
2022/10/05 09:15:00;;;;;;;6.95;4.03;;;;;;;15.85;100.00;101238.41;4885994;29;20035;-81
2022/10/05 09:18:21;;;;;;;3.50;3.13;;;;;;;15.86;100.00;101235.75;4927166;29;20266;-78
2022/10/05 09:20:57;;;;;;;5.57;3.40;;;;;;;15.91;100.00;101233.88;4893131;29;20063;-78
2022/10/05 09:23:37;;;;;;;7.18;3.95;;;;;;;15.96;100.00;101220.56;4914438;29;20056;-79
2022/10/05 09:26:40;;;;;;;3.63;3.27;;;;;;;16.02;100.00;101220.47;4918618;29;20055;-77
2022/10/05 09:29:48;;;;;;;6.18;3.08;;;;;;;16.08;100.00;101225.69;4903939;29;20055;-78
2022/10/05 09:32:47;;;;;;;3.88;3.40;;;;;;;16.12;100.00;101215.91;4912578;29;20058;-78
2022/10/05 09:35:50;;;;;;;5.07;3.17;;;;;;;16.18;100.00;101219.38;4928570;28;20044;-79
2022/10/05 09:38:46;;;;;;;3.58;3.20;;;;;;;16.24;100.00;101215.75;4873512;29;20048;-78
2022/10/05 09:41:24;;;;;;;6.32;2.88;;;;;;;16.27;100.00;101215.69;4884265;29;20039;-79
2022/10/05 09:44:11;;;;;;;3.20;2.90;;;;;;;16.26;100.00;101211.28;4919226;29;20062;-78
2022/10/05 09:47:17;;;;;;;3.10;2.80;;;;;;;16.23;100.00;101208.66;4873493;29;20031;-78
2022/10/05 09:50:03;;;;;;;5.35;3.10;;;;;;;16.24;100.00;101209.53;4894450;29;20258;-79
2022/10/05 09:53:03;;;;;;;4.03;2.92;;;;;;;16.25;100.00;101221.94;4905409;29;20290;-78
2022/10/05 09:55:50;;;;;;;4.22;3.10;;;;;;;16.28;100.00;101216.56;4891339;29;20032;-78
2022/10/05 09:58:47;;;;;;;5.22;2.60;;;;;;;16.30;100.00;101209.47;4898657;29;20054;-80
2022/10/05 10:01:40;;;;;;;4.35;2.70;;;;;;;16.32;100.00;101200.53;4901842;29;20406;-81
2022/10/05 10:04:30;;;;;;;4.50;2.83;;;;;;;16.35;100.00;101200.50;4909755;29;20047;-78
2022/10/05 10:07:13;;;;;;;3.58;3.08;;;;;;;16.38;100.00;101208.41;4912259;29;20048;-80
2022/10/05 10:09:54;;;;;;;4.78;2.38;;;;;;;16.42;100.00;101203.94;4919624;29;20594;-78
2022/10/05 10:12:50;;;;;;;3.58;2.42;;;;;;;16.41;100.00;101195.97;4915016;29;20457;-79
2022/10/05 10:15:41;;;;;;;2.72;2.53;;;;;;;16.40;100.00;101200.41;4880688;29;20416;-79
2022/10/05 10:18:34;;;;;;;4.78;2.53;;;;;;;16.38;100.00;101195.13;4902608;29;20039;-79
2022/10/05 10:21:24;;;;;;;3.33;2.35;;;;;;;16.41;100.00;101206.59;4928698;29;20058;-78
2022/10/05 10:24:12;;;;;;;2.20;2.08;;;;;;;16.43;100.00;101202.19;4915427;29;20051;-78
2022/10/05 10:26:53;;;;;;;4.30;2.05;;;;;;;16.44;100.00;101187.97;4893861;29;21059;-78
2022/10/05 10:29:24;;;;;;;3.17;2.08;;;;;;;16.44;100.00;101204.78;4918534;29;20055;-80
2022/10/05 10:32:28;;;;;;;3.97;2.47;;;;;;;16.45;100.00;101213.66;4897682;29;20051;-79
2022/10/05 10:35:26;;;;;;;4.18;1.70;;;;;;;16.43;100.00;101205.72;4924744;29;20035;-77
2022/10/05 10:38:21;;;;;;;2.10;1.90;;;;;;;16.37;100.00;101198.69;4906691;29;20047;-78
2022/10/05 10:41:04;;;;;;;3.05;2.58;;;;;;;16.34;100.00;101209.38;4887041;29;20133;-78
2022/10/05 10:43:49;;;;;;;3.40;2.20;;;;;;;16.29;100.00;101203.22;4893046;29;20070;-78
2022/10/05 10:46:20;;;;;;;2.97;2.35;;;;;;;16.28;100.00;101201.50;4873691;29;20093;-79
2022/10/05 10:49:02;;;;;;;4.63;2.40;;;;;;;16.27;100.00;101204.16;4901311;29;20052;-79
2022/10/05 10:51:46;;;;;;;2.13;2.03;;;;;;;16.27;100.00;101205.03;4902334;29;20055;-78
2022/10/05 10:54:23;;;;;;;2.85;1.85;;;;;;;16.23;100.00;101198.00;4893415;29;20051;-79
2022/10/05 10:57:20;;;;;;;6.55;2.42;;;;;;;16.20;100.00;101198.06;4899936;29;20131;-78
2022/10/05 11:00:00;;;;;;;3.42;2.15;;;;;;;16.17;100.00;101203.44;4898494;29;20055;-78
2022/10/05 11:02:45;;;;;;;5.18;2.30;;;;;;;16.17;100.00;101198.97;4854911;29;20066;-78
2022/10/05 11:05:22;;;;;;;3.88;2.00;;;;;;;16.18;100.00;101199.84;4896513;29;20066;-80
2022/10/05 11:07:57;;;;;;;4.28;2.45;;;;;;;16.15;100.00;101195.47;4913112;29;20551;-79
2022/10/05 11:10:37;;;;;;;4.45;2.30;;;;;;;16.15;100.00;101203.44;4899229;29;20052;-79
2022/10/05 11:13:35;;;;;;;3.00;2.67;;;;;;;16.21;100.00;101193.63;4910447;29;20067;-78
2022/10/05 11:16:06;;;;;;;3.97;2.50;;;;;;;16.15;100.00;101194.59;4899007;29;20043;-79
2022/10/05 11:19:01;;;;;;;2.42;2.13;;;;;;;16.13;100.00;101202.59;4877656;29;20708;-79
2022/10/05 11:21:53;;;;;;;4.53;2.17;;;;;;;16.13;100.00;101193.75;4920931;29;20425;-80
2022/10/05 11:24:33;;;;;;;4.88;2.13;;;;;;;16.13;100.00;101194.63;4926846;29;20054;-79
2022/10/05 11:27:31;;;;;;;2.95;2.40;;;;;;;16.12;100.00;101192.88;4920515;29;20052;-78
2022/10/05 11:30:20;;;;;;;4.97;2.65;;;;;;;16.09;100.00;101198.22;4899032;29;20044;-78
2022/10/05 11:32:51;;;;;;;2.95;2.55;;;;;;;16.09;100.00;101194.69;4909919;29;20062;-79
2022/10/05 11:35:50;;;;;;;3.95;2.58;;;;;;;16.10;100.00;101201.75;4878510;29;20043;-80
2022/10/05 11:38:50;;;;;;;4.97;2.47;;;;;;;16.09;100.00;101194.69;4926814;29;20059;-80
2022/10/05 11:41:45;;;;;;;3.63;2.63;;;;;;;16.05;100.00;101199.16;4909508;29;20045;-79
2022/10/05 11:44:33;;;;;;;4.22;2.70;;;;;;;16.07;100.00;101199.16;4913880;29;20047;-79
2022/10/05 11:47:26;;;;;;;2.92;2.50;;;;;;;16.05;100.00;101199.16;4899062;29;20051;-78
2022/10/05 11:50:20;;;;;;;4.53;2.47;;;;;;;16.03;100.00;101210.72;4872292;29;20070;-77
2022/10/05 11:53:00;;;;;;;2.70;2.42;;;;;;;15.98;100.00;101211.66;4881170;29;20221;-78
2022/10/05 11:55:39;;;;;;;3.38;2.58;;;;;;;15.97;100.00;101201.03;4912565;29;20339;-78
2022/10/05 11:58:56;;;;;;;2.63;2.25;;;;;;;15.94;100.00;101194.00;4925126;29;20050;-79
2022/10/05 12:01:36;;;;;;;2.53;2.20;;;;;;;15.90;100.00;101197.59;4893642;29;20056;-78
2022/10/05 12:04:20;;;;;;;2.95;2.75;;;;;;;15.88;100.00;101199.41;4895641;29;20063;-79
2022/10/05 12:06:55;;;;;;;2.30;2.10;;;;;;;15.88;100.00;101191.44;4898123;29;20044;-79
2022/10/05 12:10:12;;;;;;;3.28;2.45;;;;;;;15.86;100.00;101190.56;4916368;29;20580;-80
2022/10/05 12:12:43;;;;;;;3.33;2.42;;;;;;;15.84;100.00;101187.06;4903839;29;20052;-78
2022/10/05 12:15:26;;;;;;;3.97;2.33;;;;;;;15.83;100.00;101187.06;4914965;28;20059;-83
2022/10/05 12:18:27;;;;;;;3.15;2.25;;;;;;;15.84;100.00;101184.41;4894856;29;20040;-82
2022/10/05 12:21:17;;;;;;;4.32;2.25;;;;;;;15.81;100.00;101179.13;4884218;29;20050;-83
2022/10/05 12:23:52;;;;;;;2.28;2.10;;;;;;;15.85;100.00;101178.16;4905199;28;20055;-83
2022/10/05 12:26:54;;;;;;;2.20;2.10;;;;;;;15.86;100.00;101171.97;4918915;29;20055;-81
2022/10/05 12:29:41;;;;;;;2.40;2.08;;;;;;;15.87;100.00;101171.06;4900862;29;20060;-81
2022/10/05 12:32:15;;;;;;;2.47;2.28;;;;;;;15.88;100.00;101178.13;4900809;29;20106;-81
2022/10/05 12:35:10;;;;;;;3.38;2.72;;;;;;;15.90;100.00;101164.84;4925912;29;20048;-82
2022/10/05 12:37:42;;;;;;;3.42;3.13;;;;;;;15.89;100.00;101155.97;4940415;28;20048;-83
2022/10/05 12:40:38;;;;;;;4.25;3.13;;;;;;;15.91;100.00;101166.56;4896600;29;20270;-81
2022/10/05 12:43:31;;;;;;;3.92;3.50;;;;;;;15.92;100.00;101163.03;4909803;29;20255;-81
2022/10/05 12:46:03;;;;;;;3.53;3.25;;;;;;;15.91;100.00;101166.56;4885552;29;20051;-83
2022/10/05 12:48:38;;;;;;;6.35;3.15;;;;;;;15.92;100.00;101169.22;4890840;29;20039;-81